sensor_id;sensor_type;location;lat;lon;timestamp;temperature;humidity
69944;DHT22;57257;48.408;-4.498;2022-07-17T00:00:41;23.85;48.68
69944;DHT22;57257;48.408;-4.498;2022-07-17T00:03:13;23.81;48.86
69944;DHT22;57257;48.408;-4.498;2022-07-17T00:05:40;23.74;48.95
69944;DHT22;57257;48.408;-4.498;2022-07-17T00:08:06;23.77;48.96
69944;DHT22;57257;48.408;-4.498;2022-07-17T00:10:33;23.71;49.15
69944;DHT22;57257;48.408;-4.498;2022-07-17T00:12:59;23.71;49.33
69944;DHT22;57257;48.408;-4.498;2022-07-17T00:15:24;23.71;49.24
69944;DHT22;57257;48.408;-4.498;2022-07-17T00:17:49;23.67;49.24
69944;DHT22;57257;48.408;-4.498;2022-07-17T00:20:15;23.70;49.35
69944;DHT22;57257;48.408;-4.498;2022-07-17T00:22:40;23.67;49.43
69944;DHT22;57257;48.408;-4.498;2022-07-17T00:25:08;23.65;49.49
69944;DHT22;57257;48.408;-4.498;2022-07-17T00:27:34;23.65;49.47
69944;DHT22;57257;48.408;-4.498;2022-07-17T00:30:00;23.62;49.55
69944;DHT22;57257;48.408;-4.498;2022-07-17T00:32:26;23.60;49.60
69944;DHT22;57257;48.408;-4.498;2022-07-17T00:34:52;23.57;49.69
69944;DHT22;57257;48.408;-4.498;2022-07-17T00:37:17;23.55;49.83
69944;DHT22;57257;48.408;-4.498;2022-07-17T00:39:43;23.53;49.75
69944;DHT22;57257;48.408;-4.498;2022-07-17T00:42:12;23.54;49.76
69944;DHT22;57257;48.408;-4.498;2022-07-17T00:44:38;23.48;49.61
69944;DHT22;57257;48.408;-4.498;2022-07-17T00:47:16;23.48;49.77
69944;DHT22;57257;48.408;-4.498;2022-07-17T00:49:42;23.41;49.76
69944;DHT22;57257;48.408;-4.498;2022-07-17T00:52:09;23.43;49.74
69944;DHT22;57257;48.408;-4.498;2022-07-17T00:54:37;23.43;49.78
69944;DHT22;57257;48.408;-4.498;2022-07-17T00:57:06;23.43;49.76
69944;DHT22;57257;48.408;-4.498;2022-07-17T00:59:33;23.40;49.73
69944;DHT22;57257;48.408;-4.498;2022-07-17T01:02:03;23.37;49.80
69944;DHT22;57257;48.408;-4.498;2022-07-17T01:04:29;23.36;49.77
69944;DHT22;57257;48.408;-4.498;2022-07-17T01:06:54;23.36;49.75
69944;DHT22;57257;48.408;-4.498;2022-07-17T01:09:20;23.34;49.71
69944;DHT22;57257;48.408;-4.498;2022-07-17T01:11:45;23.33;49.65
69944;DHT22;57257;48.408;-4.498;2022-07-17T01:14:11;23.31;49.66
69944;DHT22;57257;48.408;-4.498;2022-07-17T01:16:36;23.28;49.54
69944;DHT22;57257;48.408;-4.498;2022-07-17T01:19:02;23.30;49.39
69944;DHT22;57257;48.408;-4.498;2022-07-17T01:21:40;23.28;49.36
69944;DHT22;57257;48.408;-4.498;2022-07-17T01:24:06;23.28;49.14
69944;DHT22;57257;48.408;-4.498;2022-07-17T01:26:32;23.27;49.10
69944;DHT22;57257;48.408;-4.498;2022-07-17T01:28:57;23.28;49.11
69944;DHT22;57257;48.408;-4.498;2022-07-17T01:31:23;23.28;49.02
69944;DHT22;57257;48.408;-4.498;2022-07-17T01:33:48;23.26;49.01
69944;DHT22;57257;48.408;-4.498;2022-07-17T01:36:14;23.26;48.93
69944;DHT22;57257;48.408;-4.498;2022-07-17T01:38:39;23.26;48.80
69944;DHT22;57257;48.408;-4.498;2022-07-17T01:41:05;23.26;48.75
69944;DHT22;57257;48.408;-4.498;2022-07-17T01:43:30;23.23;48.63
69944;DHT22;57257;48.408;-4.498;2022-07-17T01:45:56;23.23;48.57
69944;DHT22;57257;48.408;-4.498;2022-07-17T01:48:28;23.24;48.47
69944;DHT22;57257;48.408;-4.498;2022-07-17T01:50:55;23.26;48.36
69944;DHT22;57257;48.408;-4.498;2022-07-17T01:53:20;23.28;48.37
69944;DHT22;57257;48.408;-4.498;2022-07-17T01:55:46;23.28;48.30
69944;DHT22;57257;48.408;-4.498;2022-07-17T01:58:13;23.30;48.25
69944;DHT22;57257;48.408;-4.498;2022-07-17T02:00:39;23.26;48.15
69944;DHT22;57257;48.408;-4.498;2022-07-17T02:03:04;23.27;48.06
69944;DHT22;57257;48.408;-4.498;2022-07-17T02:05:30;23.30;48.00
69944;DHT22;57257;48.408;-4.498;2022-07-17T02:07:55;23.31;47.86
69944;DHT22;57257;48.408;-4.498;2022-07-17T02:10:21;23.33;47.70
69944;DHT22;57257;48.408;-4.498;2022-07-17T02:12:47;23.31;47.48
69944;DHT22;57257;48.408;-4.498;2022-07-17T02:15:13;23.37;47.36
69944;DHT22;57257;48.408;-4.498;2022-07-17T02:17:40;23.38;47.10
69944;DHT22;57257;48.408;-4.498;2022-07-17T02:20:07;23.43;46.93
69944;DHT22;57257;48.408;-4.498;2022-07-17T02:22:33;23.43;46.64
69944;DHT22;57257;48.408;-4.498;2022-07-17T02:24:58;23.47;46.46
69944;DHT22;57257;48.408;-4.498;2022-07-17T02:27:24;23.50;46.23
69944;DHT22;57257;48.408;-4.498;2022-07-17T02:29:49;23.54;45.96
69944;DHT22;57257;48.408;-4.498;2022-07-17T02:32:15;23.58;45.67
69944;DHT22;57257;48.408;-4.498;2022-07-17T02:34:40;23.61;45.62
69944;DHT22;57257;48.408;-4.498;2022-07-17T02:37:06;23.67;45.30
69944;DHT22;57257;48.408;-4.498;2022-07-17T02:39:31;23.65;45.09
69944;DHT22;57257;48.408;-4.498;2022-07-17T02:41:57;23.71;44.98
69944;DHT22;57257;48.408;-4.498;2022-07-17T02:44:22;23.74;44.95
69944;DHT22;57257;48.408;-4.498;2022-07-17T02:46:48;23.77;44.71
69944;DHT22;57257;48.408;-4.498;2022-07-17T02:49:13;23.79;44.61
69944;DHT22;57257;48.408;-4.498;2022-07-17T02:51:39;23.79;44.62
69944;DHT22;57257;48.408;-4.498;2022-07-17T02:54:04;23.78;44.57
69944;DHT22;57257;48.408;-4.498;2022-07-17T02:56:29;23.79;44.40
69944;DHT22;57257;48.408;-4.498;2022-07-17T02:58:55;23.79;44.30
69944;DHT22;57257;48.408;-4.498;2022-07-17T03:01:20;23.77;44.27
69944;DHT22;57257;48.408;-4.498;2022-07-17T03:03:46;23.78;44.30
69944;DHT22;57257;48.408;-4.498;2022-07-17T03:06:11;23.79;44.23
69944;DHT22;57257;48.408;-4.498;2022-07-17T03:08:37;23.81;44.24
69944;DHT22;57257;48.408;-4.498;2022-07-17T03:11:02;23.82;44.04
69944;DHT22;57257;48.408;-4.498;2022-07-17T03:13:28;23.82;43.99
69944;DHT22;57257;48.408;-4.498;2022-07-17T03:15:53;23.82;43.95
69944;DHT22;57257;48.408;-4.498;2022-07-17T03:18:19;23.84;43.84
69944;DHT22;57257;48.408;-4.498;2022-07-17T03:20:44;23.82;43.74
69944;DHT22;57257;48.408;-4.498;2022-07-17T03:23:10;23.85;43.64
69944;DHT22;57257;48.408;-4.498;2022-07-17T03:25:36;23.84;43.66
69944;DHT22;57257;48.408;-4.498;2022-07-17T03:28:02;23.84;43.57
69944;DHT22;57257;48.408;-4.498;2022-07-17T03:30:27;23.85;43.52
69944;DHT22;57257;48.408;-4.498;2022-07-17T03:32:53;23.84;43.49
69944;DHT22;57257;48.408;-4.498;2022-07-17T03:35:18;23.82;43.35
69944;DHT22;57257;48.408;-4.498;2022-07-17T03:37:44;23.85;43.27
69944;DHT22;57257;48.408;-4.498;2022-07-17T03:40:10;23.84;43.32
69944;DHT22;57257;48.408;-4.498;2022-07-17T03:42:35;23.79;43.39
69944;DHT22;57257;48.408;-4.498;2022-07-17T03:45:01;23.82;43.38
69944;DHT22;57257;48.408;-4.498;2022-07-17T03:47:26;23.79;43.41
69944;DHT22;57257;48.408;-4.498;2022-07-17T03:49:52;23.78;43.50
69944;DHT22;57257;48.408;-4.498;2022-07-17T03:52:17;23.75;43.58
69944;DHT22;57257;48.408;-4.498;2022-07-17T03:54:43;23.74;43.53
69944;DHT22;57257;48.408;-4.498;2022-07-17T03:57:08;23.72;43.50
69944;DHT22;57257;48.408;-4.498;2022-07-17T03:59:34;23.71;43.39
69944;DHT22;57257;48.408;-4.498;2022-07-17T04:01:59;23.68;43.40
69944;DHT22;57257;48.408;-4.498;2022-07-17T04:04:25;23.70;43.33
69944;DHT22;57257;48.408;-4.498;2022-07-17T04:06:50;23.68;43.39
69944;DHT22;57257;48.408;-4.498;2022-07-17T04:09:16;23.62;43.44
69944;DHT22;57257;48.408;-4.498;2022-07-17T04:11:41;23.65;43.37
69944;DHT22;57257;48.408;-4.498;2022-07-17T04:14:06;23.62;43.34
69944;DHT22;57257;48.408;-4.498;2022-07-17T04:16:32;23.62;43.26
69944;DHT22;57257;48.408;-4.498;2022-07-17T04:18:57;23.61;43.31
69944;DHT22;57257;48.408;-4.498;2022-07-17T04:21:23;23.67;43.16
69944;DHT22;57257;48.408;-4.498;2022-07-17T04:23:49;23.62;43.00
69944;DHT22;57257;48.408;-4.498;2022-07-17T04:26:15;23.62;43.00
69944;DHT22;57257;48.408;-4.498;2022-07-17T04:28:40;23.62;42.68
69944;DHT22;57257;48.408;-4.498;2022-07-17T04:31:06;23.61;42.67
69944;DHT22;57257;48.408;-4.498;2022-07-17T04:33:31;23.64;42.58
69944;DHT22;57257;48.408;-4.498;2022-07-17T04:35:57;23.64;42.62
69944;DHT22;57257;48.408;-4.498;2022-07-17T04:38:23;23.61;42.52
69944;DHT22;57257;48.408;-4.498;2022-07-17T04:40:48;23.61;42.60
69944;DHT22;57257;48.408;-4.498;2022-07-17T04:43:13;23.60;42.56
69944;DHT22;57257;48.408;-4.498;2022-07-17T04:45:39;23.60;42.39
69944;DHT22;57257;48.408;-4.498;2022-07-17T04:48:05;23.62;42.42
69944;DHT22;57257;48.408;-4.498;2022-07-17T04:50:30;23.61;42.36
69944;DHT22;57257;48.408;-4.498;2022-07-17T04:52:56;23.62;42.36
69944;DHT22;57257;48.408;-4.498;2022-07-17T04:55:22;23.60;42.40
69944;DHT22;57257;48.408;-4.498;2022-07-17T04:57:48;23.61;42.50
69944;DHT22;57257;48.408;-4.498;2022-07-17T05:00:13;23.62;42.41
69944;DHT22;57257;48.408;-4.498;2022-07-17T05:02:40;23.64;42.34
69944;DHT22;57257;48.408;-4.498;2022-07-17T05:05:06;23.67;42.41
69944;DHT22;57257;48.408;-4.498;2022-07-17T05:07:32;23.67;42.33
69944;DHT22;57257;48.408;-4.498;2022-07-17T05:09:57;23.71;42.29
69944;DHT22;57257;48.408;-4.498;2022-07-17T05:12:23;23.71;42.16
69944;DHT22;57257;48.408;-4.498;2022-07-17T05:14:48;23.72;42.06
69944;DHT22;57257;48.408;-4.498;2022-07-17T05:17:14;23.75;41.97
69944;DHT22;57257;48.408;-4.498;2022-07-17T05:19:39;23.75;41.82
69944;DHT22;57257;48.408;-4.498;2022-07-17T05:22:05;23.75;41.86
69944;DHT22;57257;48.408;-4.498;2022-07-17T05:24:31;23.78;41.84
69944;DHT22;57257;48.408;-4.498;2022-07-17T05:26:59;23.81;41.87
69944;DHT22;57257;48.408;-4.498;2022-07-17T05:29:24;23.86;41.83
69944;DHT22;57257;48.408;-4.498;2022-07-17T05:31:49;23.95;41.58
69944;DHT22;57257;48.408;-4.498;2022-07-17T05:34:15;24.02;41.64
69944;DHT22;57257;48.408;-4.498;2022-07-17T05:36:40;24.06;41.49
69944;DHT22;57257;48.408;-4.498;2022-07-17T05:39:06;24.13;41.17
69944;DHT22;57257;48.408;-4.498;2022-07-17T05:41:31;24.22;41.04
69944;DHT22;57257;48.408;-4.498;2022-07-17T05:43:57;24.30;40.90
69944;DHT22;57257;48.408;-4.498;2022-07-17T05:46:22;24.42;40.84
69944;DHT22;57257;48.408;-4.498;2022-07-17T05:48:47;24.53;40.58
69944;DHT22;57257;48.408;-4.498;2022-07-17T05:51:13;24.60;40.42
69944;DHT22;57257;48.408;-4.498;2022-07-17T05:53:38;24.63;40.28
69944;DHT22;57257;48.408;-4.498;2022-07-17T05:56:04;24.70;39.90
69944;DHT22;57257;48.408;-4.498;2022-07-17T05:58:29;24.79;39.80
69944;DHT22;57257;48.408;-4.498;2022-07-17T06:00:54;24.93;39.69
69944;DHT22;57257;48.408;-4.498;2022-07-17T06:03:20;25.02;39.67
69944;DHT22;57257;48.408;-4.498;2022-07-17T06:05:45;25.16;39.59
69944;DHT22;57257;48.408;-4.498;2022-07-17T06:08:11;25.24;39.26
69944;DHT22;57257;48.408;-4.498;2022-07-17T06:10:36;25.35;39.33
69944;DHT22;57257;48.408;-4.498;2022-07-17T06:13:03;25.44;39.21
69944;DHT22;57257;48.408;-4.498;2022-07-17T06:15:29;25.50;38.85
69944;DHT22;57257;48.408;-4.498;2022-07-17T06:17:54;25.57;38.72
69944;DHT22;57257;48.408;-4.498;2022-07-17T06:20:20;25.68;38.65
69944;DHT22;57257;48.408;-4.498;2022-07-17T06:22:45;25.77;38.36
69944;DHT22;57257;48.408;-4.498;2022-07-17T06:25:11;25.84;38.33
69944;DHT22;57257;48.408;-4.498;2022-07-17T06:27:41;25.92;38.27
69944;DHT22;57257;48.408;-4.498;2022-07-17T06:30:11;25.96;37.79
69944;DHT22;57257;48.408;-4.498;2022-07-17T06:32:38;26.01;37.68
69944;DHT22;57257;48.408;-4.498;2022-07-17T06:35:04;26.09;37.67
69944;DHT22;57257;48.408;-4.498;2022-07-17T06:37:29;26.15;37.46
69944;DHT22;57257;48.408;-4.498;2022-07-17T06:39:55;26.21;37.46
69944;DHT22;57257;48.408;-4.498;2022-07-17T06:42:21;26.28;37.24
69944;DHT22;57257;48.408;-4.498;2022-07-17T06:44:47;26.33;37.30
69944;DHT22;57257;48.408;-4.498;2022-07-17T06:47:12;26.40;37.08
69944;DHT22;57257;48.408;-4.498;2022-07-17T06:49:38;26.43;37.10
69944;DHT22;57257;48.408;-4.498;2022-07-17T06:52:03;26.49;37.02
69944;DHT22;57257;48.408;-4.498;2022-07-17T06:54:29;26.63;36.95
69944;DHT22;57257;48.408;-4.498;2022-07-17T06:56:55;26.73;36.72
69944;DHT22;57257;48.408;-4.498;2022-07-17T06:59:20;26.79;36.12
69944;DHT22;57257;48.408;-4.498;2022-07-17T07:01:46;26.84;36.33
69944;DHT22;57257;48.408;-4.498;2022-07-17T07:04:12;26.90;36.41
69944;DHT22;57257;48.408;-4.498;2022-07-17T07:06:37;27.00;36.14
69944;DHT22;57257;48.408;-4.498;2022-07-17T07:09:03;27.18;36.12
69944;DHT22;57257;48.408;-4.498;2022-07-17T07:11:29;27.29;35.63
69944;DHT22;57257;48.408;-4.498;2022-07-17T07:13:54;27.47;35.49
69944;DHT22;57257;48.408;-4.498;2022-07-17T07:16:20;27.71;35.14
69944;DHT22;57257;48.408;-4.498;2022-07-17T07:18:46;27.88;34.94
69944;DHT22;57257;48.408;-4.498;2022-07-17T07:21:11;27.94;34.86
69944;DHT22;57257;48.408;-4.498;2022-07-17T07:23:36;27.91;34.77
69944;DHT22;57257;48.408;-4.498;2022-07-17T07:26:02;27.92;34.77
69944;DHT22;57257;48.408;-4.498;2022-07-17T07:28:29;27.92;34.35
69944;DHT22;57257;48.408;-4.498;2022-07-17T07:30:54;27.88;34.60
69944;DHT22;57257;48.408;-4.498;2022-07-17T07:33:20;27.89;34.41
69944;DHT22;57257;48.408;-4.498;2022-07-17T07:35:45;27.91;34.30
69944;DHT22;57257;48.408;-4.498;2022-07-17T07:38:11;27.92;34.37
69944;DHT22;57257;48.408;-4.498;2022-07-17T07:40:36;28.05;34.17
69944;DHT22;57257;48.408;-4.498;2022-07-17T07:43:02;28.05;34.12
69944;DHT22;57257;48.408;-4.498;2022-07-17T07:45:28;28.10;34.21
69944;DHT22;57257;48.408;-4.498;2022-07-17T07:47:54;28.26;34.20
69944;DHT22;57257;48.408;-4.498;2022-07-17T07:50:22;28.39;34.27
69944;DHT22;57257;48.408;-4.498;2022-07-17T07:52:48;28.49;33.84
69944;DHT22;57257;48.408;-4.498;2022-07-17T07:55:14;28.53;33.75
69944;DHT22;57257;48.408;-4.498;2022-07-17T07:57:39;28.60;33.99
69944;DHT22;57257;48.408;-4.498;2022-07-17T08:00:06;28.63;33.59
69944;DHT22;57257;48.408;-4.498;2022-07-17T08:02:32;28.66;33.72
69944;DHT22;57257;48.408;-4.498;2022-07-17T08:04:58;28.73;33.47
69944;DHT22;57257;48.408;-4.498;2022-07-17T08:07:25;28.81;33.44
69944;DHT22;57257;48.408;-4.498;2022-07-17T08:09:51;28.96;33.30
69944;DHT22;57257;48.408;-4.498;2022-07-17T08:12:17;29.00;33.10
69944;DHT22;57257;48.408;-4.498;2022-07-17T08:14:42;29.04;33.25
69944;DHT22;57257;48.408;-4.498;2022-07-17T08:17:07;29.08;33.38
69944;DHT22;57257;48.408;-4.498;2022-07-17T08:19:33;29.15;33.30
69944;DHT22;57257;48.408;-4.498;2022-07-17T08:21:58;29.22;33.39
69944;DHT22;57257;48.408;-4.498;2022-07-17T08:24:24;29.27;33.24
69944;DHT22;57257;48.408;-4.498;2022-07-17T08:26:49;29.30;33.16
69944;DHT22;57257;48.408;-4.498;2022-07-17T08:29:14;29.44;33.37
69944;DHT22;57257;48.408;-4.498;2022-07-17T08:31:41;29.48;33.15
69944;DHT22;57257;48.408;-4.498;2022-07-17T08:34:06;29.47;33.26
69944;DHT22;57257;48.408;-4.498;2022-07-17T08:36:32;29.52;33.02
69944;DHT22;57257;48.408;-4.498;2022-07-17T08:38:57;29.54;32.99
69944;DHT22;57257;48.408;-4.498;2022-07-17T08:41:23;29.59;33.05
69944;DHT22;57257;48.408;-4.498;2022-07-17T08:43:49;29.69;32.73
69944;DHT22;57257;48.408;-4.498;2022-07-17T08:46:16;29.75;32.83
69944;DHT22;57257;48.408;-4.498;2022-07-17T08:48:45;29.75;32.67
69944;DHT22;57257;48.408;-4.498;2022-07-17T08:51:11;29.74;32.62
69944;DHT22;57257;48.408;-4.498;2022-07-17T08:53:37;29.85;32.56
69944;DHT22;57257;48.408;-4.498;2022-07-17T08:56:03;29.89;32.44
69944;DHT22;57257;48.408;-4.498;2022-07-17T08:58:29;29.92;32.39
69944;DHT22;57257;48.408;-4.498;2022-07-17T09:00:55;29.98;32.19
69944;DHT22;57257;48.408;-4.498;2022-07-17T09:03:20;30.01;32.19
69944;DHT22;57257;48.408;-4.498;2022-07-17T09:05:48;30.04;31.73
69944;DHT22;57257;48.408;-4.498;2022-07-17T09:08:23;30.05;31.98
69944;DHT22;57257;48.408;-4.498;2022-07-17T09:10:52;30.08;31.64
69944;DHT22;57257;48.408;-4.498;2022-07-17T09:13:29;30.06;31.44
69944;DHT22;57257;48.408;-4.498;2022-07-17T09:16:08;30.18;31.74
69944;DHT22;57257;48.408;-4.498;2022-07-17T09:18:44;30.32;31.42
69944;DHT22;57257;48.408;-4.498;2022-07-17T09:21:17;30.33;31.63
69944;DHT22;57257;48.408;-4.498;2022-07-17T09:23:44;30.43;31.57
69944;DHT22;57257;48.408;-4.498;2022-07-17T09:26:09;30.52;31.63
69944;DHT22;57257;48.408;-4.498;2022-07-17T09:28:44;30.60;31.15
69944;DHT22;57257;48.408;-4.498;2022-07-17T09:31:10;30.61;31.36
69944;DHT22;57257;48.408;-4.498;2022-07-17T09:33:35;30.69;31.31
69944;DHT22;57257;48.408;-4.498;2022-07-17T09:36:09;30.66;31.14
69944;DHT22;57257;48.408;-4.498;2022-07-17T09:38:38;30.69;31.28
69944;DHT22;57257;48.408;-4.498;2022-07-17T09:41:17;30.74;31.18
69944;DHT22;57257;48.408;-4.498;2022-07-17T09:44:02;30.80;31.28
69944;DHT22;57257;48.408;-4.498;2022-07-17T09:46:30;30.86;31.13
69944;DHT22;57257;48.408;-4.498;2022-07-17T09:48:58;30.91;31.04
69944;DHT22;57257;48.408;-4.498;2022-07-17T09:51:28;30.94;30.69
69944;DHT22;57257;48.408;-4.498;2022-07-17T09:53:56;30.95;30.79
69944;DHT22;57257;48.408;-4.498;2022-07-17T09:56:24;31.00;30.57
69944;DHT22;57257;48.408;-4.498;2022-07-17T10:01:26;31.18;30.78
69944;DHT22;57257;48.408;-4.498;2022-07-17T10:03:52;31.24;30.55
69944;DHT22;57257;48.408;-4.498;2022-07-17T10:06:19;31.30;30.61
69944;DHT22;57257;48.408;-4.498;2022-07-17T10:08:46;31.34;30.70
69944;DHT22;57257;48.408;-4.498;2022-07-17T10:11:12;31.48;30.57
69944;DHT22;57257;48.408;-4.498;2022-07-17T10:13:42;31.62;30.08
69944;DHT22;57257;48.408;-4.498;2022-07-17T10:16:08;31.66;29.78
69944;DHT22;57257;48.408;-4.498;2022-07-17T10:18:39;31.72;29.83
69944;DHT22;57257;48.408;-4.498;2022-07-17T10:23:35;31.74;29.49
69944;DHT22;57257;48.408;-4.498;2022-07-17T10:26:01;31.85;29.66
69944;DHT22;57257;48.408;-4.498;2022-07-17T10:28:46;32.02;29.36
69944;DHT22;57257;48.408;-4.498;2022-07-17T10:31:23;32.09;29.32
69944;DHT22;57257;48.408;-4.498;2022-07-17T10:34:01;32.18;29.16
69944;DHT22;57257;48.408;-4.498;2022-07-17T10:36:40;32.19;28.87
69944;DHT22;57257;48.408;-4.498;2022-07-17T10:39:20;32.22;28.63
69944;DHT22;57257;48.408;-4.498;2022-07-17T10:41:56;32.25;28.65
69944;DHT22;57257;48.408;-4.498;2022-07-17T10:44:27;32.35;28.61
69944;DHT22;57257;48.408;-4.498;2022-07-17T10:46:54;32.41;28.57
69944;DHT22;57257;48.408;-4.498;2022-07-17T10:49:19;32.43;28.66
69944;DHT22;57257;48.408;-4.498;2022-07-17T10:51:48;32.50;28.62
69944;DHT22;57257;48.408;-4.498;2022-07-17T10:54:14;32.61;28.55
69944;DHT22;57257;48.408;-4.498;2022-07-17T10:56:40;32.73;28.52
69944;DHT22;57257;48.408;-4.498;2022-07-17T10:59:06;32.83;28.40
69944;DHT22;57257;48.408;-4.498;2022-07-17T11:01:32;32.83;28.29
69944;DHT22;57257;48.408;-4.498;2022-07-17T11:03:59;32.88;28.16
69944;DHT22;57257;48.408;-4.498;2022-07-17T11:09:09;32.99;28.06
69944;DHT22;57257;48.408;-4.498;2022-07-17T11:14:16;33.14;27.68
69944;DHT22;57257;48.408;-4.498;2022-07-17T11:16:56;33.23;27.40
69944;DHT22;57257;48.408;-4.498;2022-07-17T11:19:30;33.25;27.69
69944;DHT22;57257;48.408;-4.498;2022-07-17T11:21:57;33.34;27.55
69944;DHT22;57257;48.408;-4.498;2022-07-17T11:24:23;33.27;27.48
69944;DHT22;57257;48.408;-4.498;2022-07-17T11:26:51;33.38;27.57
69944;DHT22;57257;48.408;-4.498;2022-07-17T11:29:17;33.47;27.58
69944;DHT22;57257;48.408;-4.498;2022-07-17T11:31:43;33.51;27.38
69944;DHT22;57257;48.408;-4.498;2022-07-17T11:34:10;33.53;26.98
69944;DHT22;57257;48.408;-4.498;2022-07-17T11:36:42;33.40;27.05
69944;DHT22;57257;48.408;-4.498;2022-07-17T11:39:16;33.43;27.24
69944;DHT22;57257;48.408;-4.498;2022-07-17T11:41:50;33.51;27.03
69944;DHT22;57257;48.408;-4.498;2022-07-17T11:44:19;33.58;27.00
69944;DHT22;57257;48.408;-4.498;2022-07-17T11:46:48;33.58;27.20
69944;DHT22;57257;48.408;-4.498;2022-07-17T11:49:35;33.61;27.10
69944;DHT22;57257;48.408;-4.498;2022-07-17T11:52:10;33.66;26.84
69944;DHT22;57257;48.408;-4.498;2022-07-17T11:54:52;33.76;27.14
69944;DHT22;57257;48.408;-4.498;2022-07-17T11:57:20;33.84;26.54
69944;DHT22;57257;48.408;-4.498;2022-07-17T11:59:46;33.91;26.23
69944;DHT22;57257;48.408;-4.498;2022-07-17T12:02:18;33.95;26.24
69944;DHT22;57257;48.408;-4.498;2022-07-17T12:04:55;34.01;26.31
69944;DHT22;57257;48.408;-4.498;2022-07-17T12:07:23;34.12;26.46
69944;DHT22;57257;48.408;-4.498;2022-07-17T12:09:51;34.23;26.00
69944;DHT22;57257;48.408;-4.498;2022-07-17T12:12:25;34.26;25.74
69944;DHT22;57257;48.408;-4.498;2022-07-17T12:14:56;34.28;26.12
69944;DHT22;57257;48.408;-4.498;2022-07-17T12:17:23;34.38;26.14
69944;DHT22;57257;48.408;-4.498;2022-07-17T12:19:50;34.45;25.95
69944;DHT22;57257;48.408;-4.498;2022-07-17T12:22:16;34.36;25.92
69944;DHT22;57257;48.408;-4.498;2022-07-17T12:24:43;34.43;26.29
69944;DHT22;57257;48.408;-4.498;2022-07-17T12:27:13;34.53;25.84
69944;DHT22;57257;48.408;-4.498;2022-07-17T12:29:40;34.50;26.24
69944;DHT22;57257;48.408;-4.498;2022-07-17T12:32:08;34.63;26.38
69944;DHT22;57257;48.408;-4.498;2022-07-17T12:34:37;34.83;26.34
69944;DHT22;57257;48.408;-4.498;2022-07-17T12:37:03;34.80;25.59
69944;DHT22;57257;48.408;-4.498;2022-07-17T12:39:29;34.64;25.48
69944;DHT22;57257;48.408;-4.498;2022-07-17T12:41:55;34.69;25.59
69944;DHT22;57257;48.408;-4.498;2022-07-17T12:44:20;34.67;25.54
69944;DHT22;57257;48.408;-4.498;2022-07-17T12:46:46;34.71;25.91
69944;DHT22;57257;48.408;-4.498;2022-07-17T12:49:11;34.80;25.66
69944;DHT22;57257;48.408;-4.498;2022-07-17T12:51:37;34.91;25.41
69944;DHT22;57257;48.408;-4.498;2022-07-17T12:54:02;34.97;25.52
69944;DHT22;57257;48.408;-4.498;2022-07-17T12:56:28;35.08;25.43
69944;DHT22;57257;48.408;-4.498;2022-07-17T12:58:53;35.15;25.39
69944;DHT22;57257;48.408;-4.498;2022-07-17T13:01:18;35.26;25.06
69944;DHT22;57257;48.408;-4.498;2022-07-17T13:03:44;35.27;25.36
69944;DHT22;57257;48.408;-4.498;2022-07-17T13:06:09;35.40;24.89
69944;DHT22;57257;48.408;-4.498;2022-07-17T13:08:36;35.53;24.88
69944;DHT22;57257;48.408;-4.498;2022-07-17T13:11:02;35.55;25.06
69944;DHT22;57257;48.408;-4.498;2022-07-17T13:13:29;35.71;25.02
69944;DHT22;57257;48.408;-4.498;2022-07-17T13:15:55;35.86;24.76
69944;DHT22;57257;48.408;-4.498;2022-07-17T13:18:21;36.02;24.53
69944;DHT22;57257;48.408;-4.498;2022-07-17T13:20:47;36.11;24.37
69944;DHT22;57257;48.408;-4.498;2022-07-17T13:23:13;36.12;24.15
69944;DHT22;57257;48.408;-4.498;2022-07-17T13:25:39;36.22;24.00
69944;DHT22;57257;48.408;-4.498;2022-07-17T13:28:05;36.28;23.88
69944;DHT22;57257;48.408;-4.498;2022-07-17T13:30:32;36.35;23.97
69944;DHT22;57257;48.408;-4.498;2022-07-17T13:32:58;36.48;23.83
69944;DHT22;57257;48.408;-4.498;2022-07-17T13:35:24;36.55;23.72
69944;DHT22;57257;48.408;-4.498;2022-07-17T13:37:50;36.57;23.30
69944;DHT22;57257;48.408;-4.498;2022-07-17T13:40:15;36.60;23.46
69944;DHT22;57257;48.408;-4.498;2022-07-17T13:42:41;36.72;23.35
69944;DHT22;57257;48.408;-4.498;2022-07-17T13:45:07;36.82;23.28
69944;DHT22;57257;48.408;-4.498;2022-07-17T13:47:32;36.82;23.25
69944;DHT22;57257;48.408;-4.498;2022-07-17T13:49:58;36.84;23.46
69944;DHT22;57257;48.408;-4.498;2022-07-17T13:52:23;36.76;23.12
69944;DHT22;57257;48.408;-4.498;2022-07-17T13:54:49;36.75;23.56
69944;DHT22;57257;48.408;-4.498;2022-07-17T13:57:14;36.83;23.43
69944;DHT22;57257;48.408;-4.498;2022-07-17T13:59:39;36.83;23.39
69944;DHT22;57257;48.408;-4.498;2022-07-17T14:02:07;36.86;23.63
69944;DHT22;57257;48.408;-4.498;2022-07-17T14:04:33;36.94;23.89
69944;DHT22;57257;48.408;-4.498;2022-07-17T14:06:58;36.93;23.42
69944;DHT22;57257;48.408;-4.498;2022-07-17T14:09:24;36.93;23.63
69944;DHT22;57257;48.408;-4.498;2022-07-17T14:11:50;36.96;23.51
69944;DHT22;57257;48.408;-4.498;2022-07-17T14:14:15;37.00;23.38
69944;DHT22;57257;48.408;-4.498;2022-07-17T14:16:41;37.06;23.53
69944;DHT22;57257;48.408;-4.498;2022-07-17T14:19:06;37.19;23.68
69944;DHT22;57257;48.408;-4.498;2022-07-17T14:21:35;37.31;23.81
69944;DHT22;57257;48.408;-4.498;2022-07-17T14:24:01;37.51;23.41
69944;DHT22;57257;48.408;-4.498;2022-07-17T14:26:26;37.58;23.34
69944;DHT22;57257;48.408;-4.498;2022-07-17T14:28:52;37.61;23.31
69944;DHT22;57257;48.408;-4.498;2022-07-17T14:31:18;37.74;23.33
69944;DHT22;57257;48.408;-4.498;2022-07-17T14:33:43;37.71;23.16
69944;DHT22;57257;48.408;-4.498;2022-07-17T14:36:10;37.75;23.09
69944;DHT22;57257;48.408;-4.498;2022-07-17T14:38:35;37.85;22.81
69944;DHT22;57257;48.408;-4.498;2022-07-17T14:41:01;37.91;22.84
69944;DHT22;57257;48.408;-4.498;2022-07-17T14:43:27;37.98;23.26
69944;DHT22;57257;48.408;-4.498;2022-07-17T14:45:53;37.98;22.66
69944;DHT22;57257;48.408;-4.498;2022-07-17T14:48:18;37.97;23.06
69944;DHT22;57257;48.408;-4.498;2022-07-17T14:50:44;38.06;23.37
69944;DHT22;57257;48.408;-4.498;2022-07-17T14:53:09;38.09;23.11
69944;DHT22;57257;48.408;-4.498;2022-07-17T14:55:35;38.16;23.19
69944;DHT22;57257;48.408;-4.498;2022-07-17T14:58:00;38.35;22.75
69944;DHT22;57257;48.408;-4.498;2022-07-17T15:00:26;38.40;22.37
69944;DHT22;57257;48.408;-4.498;2022-07-17T15:02:51;38.44;22.42
69944;DHT22;57257;48.408;-4.498;2022-07-17T15:05:17;38.55;22.32
69944;DHT22;57257;48.408;-4.498;2022-07-17T15:07:42;38.63;22.52
69944;DHT22;57257;48.408;-4.498;2022-07-17T15:10:08;38.80;22.43
69944;DHT22;57257;48.408;-4.498;2022-07-17T15:12:33;38.92;22.22
69944;DHT22;57257;48.408;-4.498;2022-07-17T15:14:58;38.93;22.18
69944;DHT22;57257;48.408;-4.498;2022-07-17T15:17:24;38.89;21.94
69944;DHT22;57257;48.408;-4.498;2022-07-17T15:19:50;38.89;22.17
69944;DHT22;57257;48.408;-4.498;2022-07-17T15:22:15;38.95;22.11